2018-12-18 - 21:16:00

SR: 0734 - SS: 1518

RWY: 07


OBSERVATION: n/a

RVR Mean 1 min: (Runway Visual Range)
A: P2000 - B: P2000 - C: P2000
RVR Mean 10 min:
A: P2000 - B: P2000 - C: P2000
WARNING: n/a
W25: 060-170(120-07kt) 02kt-12kt
W07: 090-150(110-08kt) 04kt-12kt
OTHER: n/a

QFE: (tats�chlicher Luftdruck) 1009.3 hPa = 29.79 inHg
QNH:(Luftdruck auf Meeresh�he) 1015.1 hPa = 29.97 inHg
Temperatur: 4.0 �C
Dew point(Taupunkt): 0.8 �C

METAR:  00028 SADL31 EDDG 182050 METAR EDDG 182050Z 12006KT 070V170 CAVOK 04/01 Q1015 NOSIG= 
METAR (aus weather.noaa.gov):
2018/12/18 20:50 EDDG 182050Z 12006KT 070V170 CAVOK 04/01 Q1015 NOSIG

TAF (aus weather.noaa.gov):
2018/12/18 18:27 TAF EDDG 181700Z 1818/1918 12007KT CAVOK BECMG 1906/1909 18006KT TEMPO 1908/1912 BKN013